createdAt,value
2024-01-01T00:02:18.473Z,99642.22
2024-01-01T00:04:48.121Z,99645.22
2024-01-01T00:07:15.166Z,99643.22
2024-01-01T00:09:42.270Z,99639.03
2024-01-01T00:12:09.562Z,99642.38
2024-01-01T00:14:36.615Z,99647.59
2024-01-01T00:17:03.961Z,99651.28
2024-01-01T00:19:31.115Z,99645.91
2024-01-01T00:22:00.831Z,99648.22
2024-01-01T00:24:27.948Z,99644.38
2024-01-01T00:26:54.938Z,99650.59
2024-01-01T00:29:27.753Z,99648.59
2024-01-01T00:31:58.235Z,99652.28
2024-01-01T00:34:25.297Z,99644.88
2024-01-01T00:36:52.393Z,99656.66
2024-01-01T00:39:22.026Z,99648.22
2024-01-01T00:41:49.060Z,99652.59
2024-01-01T00:44:16.198Z,99647.22
2024-01-01T00:46:43.834Z,99651.75
2024-01-01T00:49:10.917Z,99655.63
2024-01-01T00:51:37.954Z,99653.59
2024-01-01T00:54:05.127Z,99641.69
2024-01-01T00:56:34.791Z,99660.16
2024-01-01T00:59:01.970Z,99653.44
2024-01-01T01:01:29.035Z,99650.59
2024-01-01T01:03:56.182Z,99651.59
2024-01-01T01:06:25.329Z,99649.06
2024-01-01T01:08:52.997Z,99659.97
2024-01-01T01:11:20.067Z,99648.91
2024-01-01T01:13:49.746Z,99658.50
2024-01-01T01:16:16.919Z,99654.66
2024-01-01T01:18:44.103Z,99652.97
2024-01-01T01:21:11.145Z,99662.50
2024-01-01T01:23:38.327Z,99656.13
2024-01-01T01:26:05.464Z,99655.28
2024-01-01T01:28:32.539Z,99656.97
2024-01-01T01:31:02.544Z,99656.66
2024-01-01T01:33:29.680Z,99650.59
2024-01-01T01:35:56.772Z,99655.13
2024-01-01T01:38:23.875Z,99643.91
2024-01-01T01:40:51.115Z,99647.75
2024-01-01T01:43:22.983Z,99657.13
2024-01-01T01:45:52.009Z,99653.28
2024-01-01T01:48:22.968Z,99669.91
2024-01-01T01:50:52.127Z,99672.78
2024-01-01T01:53:21.579Z,99669.41
2024-01-01T01:55:48.713Z,99662.72
2024-01-01T01:58:15.970Z,99657.97
2024-01-01T02:00:43.570Z,99659.34
2024-01-01T02:03:10.616Z,99668.09
2024-01-01T02:05:40.764Z,99663.19
2024-01-01T02:08:09.378Z,99668.72
2024-01-01T02:10:37.069Z,99661.34
2024-01-01T02:13:04.443Z,99671.25
2024-01-01T02:15:31.553Z,99674.09
2024-01-01T02:17:58.607Z,99669.72
2024-01-01T02:20:25.984Z,99665.03
2024-01-01T02:22:57.503Z,99665.03
2024-01-01T02:25:24.672Z,99664.72
2024-01-01T02:27:51.764Z,99665.38
2024-01-01T02:30:18.984Z,99651.97
2024-01-01T02:32:46.092Z,99655.28
2024-01-01T02:35:13.291Z,99656.97
2024-01-01T02:37:40.453Z,99653.28
2024-01-01T02:40:11.652Z,99639.03
2024-01-01T02:42:38.813Z,99649.59
2024-01-01T02:45:07.800Z,99650.75
2024-01-01T02:47:34.877Z,99649.91
2024-01-01T02:50:02.044Z,99659.34
2024-01-01T02:52:29.134Z,99660.03
2024-01-01T02:54:56.174Z,99658.97
2024-01-01T02:57:27.015Z,99658.66
2024-01-01T02:59:54.057Z,99662.34
2024-01-01T03:02:21.053Z,99665.38
2024-01-01T03:04:48.140Z,99671.41
2024-01-01T03:07:16.303Z,99665.88
2024-01-01T03:09:43.335Z,99667.25
2024-01-01T03:12:10.344Z,99659.19
2024-01-01T03:14:39.966Z,99666.38
2024-01-01T03:17:06.968Z,99660.34
2024-01-01T03:19:34.042Z,99661.19
2024-01-01T03:22:01.068Z,99675.44
2024-01-01T03:24:28.032Z,99678.13
2024-01-01T03:26:55.020Z,99665.19
2024-01-01T03:29:22.115Z,99666.56
2024-01-01T03:31:51.817Z,99661.69
2024-01-01T03:34:18.870Z,99670.75
2024-01-01T03:36:45.927Z,99669.75
2024-01-01T03:39:13.044Z,99672.59
2024-01-01T03:41:40.126Z,99664.38
2024-01-01T03:44:07.200Z,99667.06
2024-01-01T03:46:34.287Z,99665.69
2024-01-01T03:49:04.027Z,99672.44
2024-01-01T03:51:31.102Z,99685.69
2024-01-01T03:53:58.208Z,99672.75
2024-01-01T03:56:25.340Z,99673.78
2024-01-01T03:58:52.379Z,99667.22
2024-01-01T04:01:21.362Z,99673.78
2024-01-01T04:03:48.496Z,99668.91
2024-01-01T04:06:18.184Z,99677.97
2024-01-01T04:08:45.255Z,99672.75
2024-01-01T04:11:12.414Z,99669.06
2024-01-01T04:13:39.542Z,99668.56
2024-01-01T04:16:07.096Z,99674.94
2024-01-01T04:18:34.274Z,99672.94
2024-01-01T04:21:01.422Z,99676.13
2024-01-01T04:23:31.482Z,99670.09
2024-01-01T04:25:58.583Z,99662.03
2024-01-01T04:28:25.606Z,99679.00
2024-01-01T04:30:52.613Z,99674.94
2024-01-01T04:33:19.856Z,99679.16
2024-01-01T04:35:46.907Z,99682.00
2024-01-01T04:38:14.167Z,99675.78
2024-01-01T04:40:43.983Z,99674.94
2024-01-01T04:43:11.100Z,99679.31
2024-01-01T04:45:38.318Z,99685.84
2024-01-01T04:48:07.232Z,99697.28
2024-01-01T04:50:34.599Z,99703.66
2024-01-01T04:53:01.615Z,99692.25
2024-01-01T04:55:28.833Z,99697.28
2024-01-01T04:57:58.470Z,99706.19
2024-01-01T05:00:25.479Z,99694.25
2024-01-01T05:02:52.479Z,99702.66
2024-01-01T05:05:19.528Z,99699.28
2024-01-01T05:07:46.660Z,99706.84
2024-01-01T05:10:13.837Z,99715.75
2024-01-01T05:12:40.908Z,99702.31
2024-01-01T05:15:12.778Z,99721.44
2024-01-01T05:17:39.963Z,99723.97
2024-01-01T05:20:08.743Z,99717.44
2024-01-01T05:22:35.826Z,99721.13
2024-01-01T05:25:02.991Z,99730.88
2024-01-01T05:27:30.085Z,99715.41
2024-01-01T05:29:57.093Z,99727.84
2024-01-01T05:32:26.862Z,99723.47
2024-01-01T05:34:54.018Z,99714.09
2024-01-01T05:37:21.053Z,99729.53
2024-01-01T05:39:48.038Z,99720.13
2024-01-01T05:42:15.162Z,99717.78
2024-01-01T05:44:42.234Z,99724.00
2024-01-01T05:47:09.373Z,99724.16
2024-01-01T05:49:39.138Z,99724.81
2024-01-01T05:52:06.466Z,99716.75
2024-01-01T05:54:33.501Z,99719.78
2024-01-01T05:57:00.535Z,99720.47
2024-01-01T05:59:27.671Z,99719.63
2024-01-01T06:01:54.795Z,99732.22
2024-01-01T06:04:21.935Z,99723.81
2024-01-01T06:06:51.691Z,99737.72
2024-01-01T06:09:18.733Z,99729.34
2024-01-01T06:11:45.728Z,99732.19
2024-01-01T06:14:12.898Z,99729.88
2024-01-01T06:16:39.996Z,99748.66
2024-01-01T06:19:07.121Z,99733.88
2024-01-01T06:21:34.116Z,99738.09
2024-01-01T06:24:03.845Z,99749.31
2024-01-01T06:26:30.883Z,99751.66
2024-01-01T06:28:58.012Z,99742.94
2024-01-01T06:31:25.038Z,99765.09
2024-01-01T06:33:52.181Z,99758.03
2024-01-01T06:36:19.288Z,99765.41
2024-01-01T06:38:46.290Z,99765.59
2024-01-01T06:41:15.982Z,99777.81
2024-01-01T06:43:43.111Z,99782.53
2024-01-01T06:46:10.256Z,99782.19
2024-01-01T06:48:37.415Z,99805.84
2024-01-01T06:51:09.811Z,99805.66
2024-01-01T06:53:36.821Z,99817.94
2024-01-01T06:56:04.122Z,99808.19
2024-01-01T06:58:33.773Z,99819.78
2024-01-01T07:01:00.935Z,99814.59
2024-01-01T07:03:28.056Z,99820.47
2024-01-01T07:05:55.134Z,99830.84
2024-01-01T07:08:22.444Z,99825.16
2024-01-01T07:10:49.705Z,99838.91
2024-01-01T07:13:16.757Z,99829.31
2024-01-01T07:15:46.403Z,99841.06
2024-01-01T07:18:13.598Z,99839.91
2024-01-01T07:20:40.789Z,99847.97
2024-01-01T07:23:07.869Z,99848.13
2024-01-01T07:25:34.970Z,99852.81
2024-01-01T07:28:02.063Z,99847.94
2024-01-01T07:30:29.109Z,99854.31
2024-01-01T07:32:58.725Z,99859.16
2024-01-01T07:35:25.814Z,99875.81
2024-01-01T07:37:52.991Z,99857.19
2024-01-01T07:40:20.298Z,99861.41
2024-01-01T07:42:47.301Z,99859.16
2024-01-01T07:45:14.507Z,99856.34
2024-01-01T07:47:41.543Z,99864.53
2024-01-01T07:50:11.567Z,99868.25
2024-01-01T07:52:38.715Z,99870.75
2024-01-01T07:55:07.032Z,99876.13
2024-01-01T07:57:34.040Z,99865.22
2024-01-01T08:00:01.134Z,99874.31
2024-01-01T08:02:28.293Z,99875.00
2024-01-01T08:04:55.479Z,99878.34
2024-01-01T08:07:25.173Z,99881.53
2024-01-01T08:09:52.358Z,99878.34
2024-01-01T08:12:19.392Z,99870.78
2024-01-01T08:14:46.406Z,99875.47
2024-01-01T08:17:13.512Z,99867.81
2024-01-01T08:19:40.726Z,99868.81
2024-01-01T08:22:07.823Z,99853.38
2024-01-01T08:24:37.538Z,99867.47
2024-01-01T08:27:05.349Z,99873.84
2024-01-01T08:29:35.149Z,99874.38
2024-01-01T08:32:03.819Z,99871.72
2024-01-01T08:34:30.840Z,99884.34
2024-01-01T08:36:57.850Z,99890.41
2024-01-01T08:39:24.866Z,99891.41
2024-01-01T08:41:54.822Z,99900.13
2024-01-01T08:44:21.966Z,99906.69
2024-01-01T08:46:49.018Z,99909.22
2024-01-01T08:49:16.078Z,99909.53
2024-01-01T08:51:43.171Z,99923.66
2024-01-01T08:54:10.203Z,99913.25
2024-01-01T08:56:37.178Z,99920.47
2024-01-01T08:59:06.844Z,99924.69
2024-01-01T09:01:33.995Z,99928.88
2024-01-01T09:04:01.059Z,99925.38
2024-01-01T09:06:28.212Z,99943.84
2024-01-01T09:08:55.180Z,99929.28
2024-01-01T09:11:22.302Z,99937.19
2024-01-01T09:13:49.360Z,99932.13
2024-01-01T09:16:19.044Z,99941.19
2024-01-01T09:18:46.120Z,99946.72
2024-01-01T09:21:17.423Z,99947.22
2024-01-01T09:23:44.534Z,99951.94
2024-01-01T09:26:14.295Z,99949.59
2024-01-01T09:28:41.586Z,99946.25
2024-01-01T09:31:08.785Z,99949.28
2024-01-01T09:33:38.879Z,99948.97
2024-01-01T09:36:06.870Z,99947.59
2024-01-01T09:38:34.341Z,99955.84
2024-01-01T09:41:01.553Z,99954.22
2024-01-01T09:43:28.710Z,99966.84
2024-01-01T09:45:56.928Z,99948.69
2024-01-01T09:48:24.161Z,99958.47
2024-01-01T09:50:55.948Z,99950.56
2024-01-01T09:53:24.751Z,99945.53
2024-01-01T09:55:53.090Z,99952.44
2024-01-01T09:58:20.374Z,99951.44
2024-01-01T10:00:47.515Z,99948.75
2024-01-01T10:03:14.651Z,99954.13
2024-01-01T10:05:42.721Z,99954.78
2024-01-01T10:08:13.946Z,99954.13
2024-01-01T10:10:43.208Z,99945.38
2024-01-01T10:13:11.329Z,99944.03
2024-01-01T10:15:39.890Z,99960.16
2024-01-01T10:18:11.569Z,99957.16
2024-01-01T10:20:40.044Z,99959.69
2024-01-01T10:23:30.662Z,99959.00
2024-01-01T10:26:05.937Z,99964.06
2024-01-01T10:28:34.126Z,99967.25
2024-01-01T10:31:02.857Z,99953.47
2024-01-01T10:33:30.309Z,99957.47
2024-01-01T10:36:01.080Z,99954.13
2024-01-01T10:38:32.156Z,99939.66
2024-01-01T10:41:00.657Z,99945.03
2024-01-01T10:43:27.876Z,99950.09
2024-01-01T10:46:02.230Z,99942.69
2024-01-01T10:48:31.098Z,99948.41
2024-01-01T10:51:22.422Z,99948.72
2024-01-01T10:54:06.543Z,99955.78
2024-01-01T10:56:46.180Z,99956.31
2024-01-01T10:59:21.027Z,99961.53
2024-01-01T11:01:50.153Z,99972.13
2024-01-01T11:04:20.532Z,99956.00
2024-01-01T11:06:47.533Z,99966.56
2024-01-01T11:09:32.914Z,99966.25
2024-01-01T11:12:00.032Z,99963.56
2024-01-01T11:14:29.026Z,99970.94
2024-01-01T11:17:02.537Z,99959.66
2024-01-01T11:19:39.032Z,99971.09
2024-01-01T11:22:33.677Z,99968.09
2024-01-01T11:25:03.793Z,99970.25
2024-01-01T11:27:32.067Z,99968.56
2024-01-01T11:30:03.394Z,99971.47
2024-01-01T11:32:30.697Z,99975.50
2024-01-01T11:35:09.362Z,99976.66
2024-01-01T11:37:37.909Z,99980.88
2024-01-01T11:40:09.054Z,99979.53
2024-01-01T11:42:36.671Z,99985.41
2024-01-01T11:45:08.568Z,99992.84
2024-01-01T11:47:36.428Z,99983.72
2024-01-01T11:50:05.217Z,99988.78
2024-01-01T11:52:32.510Z,99975.47
2024-01-01T11:55:00.460Z,99980.38
2024-01-01T11:57:30.367Z,99977.34
2024-01-01T11:59:57.958Z,99962.84
2024-01-01T12:02:26.233Z,99967.53
2024-01-01T12:04:55.223Z,99978.00
2024-01-01T12:07:30.831Z,99985.78
2024-01-01T12:10:02.312Z,99982.22
2024-01-01T12:12:31.976Z,99977.31
2024-01-01T12:15:09.557Z,99973.22
2024-01-01T12:17:42.561Z,99981.00
2024-01-01T12:20:11.273Z,99989.09
2024-01-01T12:22:38.684Z,99975.63
2024-01-01T12:25:06.553Z,99976.63
2024-01-01T12:27:36.163Z,99972.91
2024-01-01T12:30:03.392Z,99976.44
2024-01-01T12:32:31.408Z,99973.59
2024-01-01T12:34:58.537Z,99969.56
2024-01-01T12:37:27.062Z,99978.00
2024-01-01T12:39:54.088Z,99978.00
2024-01-01T12:42:21.126Z,99969.53
2024-01-01T12:44:50.721Z,99966.84
2024-01-01T12:47:17.767Z,99964.53
2024-01-01T12:49:44.882Z,99973.25
2024-01-01T12:52:11.968Z,99970.91
2024-01-01T12:54:38.981Z,99971.72
2024-01-01T12:57:06.480Z,99968.16
2024-01-01T12:59:33.531Z,99965.94
2024-01-01T13:02:03.507Z,99967.81
2024-01-01T13:04:30.578Z,99982.94
2024-01-01T13:06:57.570Z,99963.75
2024-01-01T13:09:24.621Z,99976.53
2024-01-01T13:11:51.948Z,99973.03
2024-01-01T13:14:19.040Z,99971.84
2024-01-01T13:16:46.136Z,99966.41
2024-01-01T13:19:15.897Z,99974.53
2024-01-01T13:21:43.151Z,99965.09
2024-01-01T13:24:10.357Z,99962.06
2024-01-01T13:26:37.400Z,99959.88
2024-01-01T13:29:04.464Z,99943.53
2024-01-01T13:31:31.579Z,99940.25
2024-01-01T13:33:58.590Z,99943.16
2024-01-01T13:36:28.255Z,99937.75
2024-01-01T13:38:55.445Z,99945.50
2024-01-01T13:41:22.909Z,99949.03
2024-01-01T13:43:50.245Z,99942.09
2024-01-01T13:46:17.419Z,99944.16
2024-01-01T13:48:44.773Z,99948.84
2024-01-01T13:51:16.726Z,99943.19
2024-01-01T13:53:47.320Z,99953.13
2024-01-01T13:56:18.412Z,99954.50
2024-01-01T13:58:45.659Z,99957.03
2024-01-01T14:01:12.840Z,99970.38
2024-01-01T14:03:40.000Z,99969.53
2024-01-01T14:06:07.222Z,99969.53
2024-01-01T14:08:34.361Z,99975.91
2024-01-01T14:11:06.115Z,99965.16
2024-01-01T14:13:33.208Z,99971.53
2024-01-01T14:16:00.235Z,99976.28
2024-01-01T14:18:27.335Z,99973.59
2024-01-01T14:20:54.426Z,99974.59
2024-01-01T14:23:21.545Z,99980.84
2024-01-01T14:25:48.668Z,99978.00
2024-01-01T14:28:18.321Z,99979.31
2024-01-01T14:30:45.483Z,99982.69
2024-01-01T14:33:12.609Z,99984.38
2024-01-01T14:35:39.765Z,99979.00
2024-01-01T14:38:06.959Z,99987.72
2024-01-01T14:40:34.040Z,99992.63
2024-01-01T14:43:01.163Z,100003.25
2024-01-01T14:45:31.201Z,99996.00
2024-01-01T14:47:58.315Z,100015.03
2024-01-01T14:50:25.474Z,100020.09
2024-01-01T14:52:52.515Z,100027.66
2024-01-01T14:55:19.531Z,100027.50
2024-01-01T14:57:46.607Z,100031.50
2024-01-01T15:00:14.735Z,100044.66
2024-01-01T15:02:44.408Z,100050.22
2024-01-01T15:05:11.651Z,100049.38
2024-01-01T15:07:38.750Z,100052.06
2024-01-01T15:10:06.738Z,100042.97
2024-01-01T15:12:33.788Z,100041.63
2024-01-01T15:15:02.427Z,100049.19
2024-01-01T15:17:30.123Z,100042.97
2024-01-01T15:20:00.168Z,100044.66
2024-01-01T15:22:27.219Z,100047.34
2024-01-01T15:24:54.322Z,100050.88
2024-01-01T15:27:21.439Z,100046.34
2024-01-01T15:29:48.480Z,100048.50
2024-01-01T15:32:15.517Z,100052.25
2024-01-01T15:34:43.187Z,100047.19
2024-01-01T15:37:12.908Z,100049.88
2024-01-01T15:39:39.960Z,100055.41
2024-01-01T15:42:07.194Z,100047.34
2024-01-01T15:44:34.286Z,100054.72
2024-01-01T15:47:05.077Z,100056.63
2024-01-01T15:49:32.199Z,100057.44
2024-01-01T15:51:59.293Z,100054.94
2024-01-01T15:54:28.906Z,100054.41
2024-01-01T15:56:56.012Z,100062.00
2024-01-01T15:59:23.191Z,100062.63
2024-01-01T16:01:50.421Z,100060.13
2024-01-01T16:04:17.557Z,100058.44
2024-01-01T16:06:44.624Z,100062.16
2024-01-01T16:09:11.668Z,100062.84
2024-01-01T16:11:41.503Z,100064.69
2024-01-01T16:14:08.635Z,100058.78
2024-01-01T16:16:35.680Z,100064.16
2024-01-01T16:19:05.070Z,100061.47
2024-01-01T16:21:35.827Z,100059.63
2024-01-01T16:24:03.058Z,100064.31
2024-01-01T16:26:30.212Z,100075.59
2024-01-01T16:28:59.909Z,100076.94
2024-01-01T16:31:26.979Z,100076.28
2024-01-01T16:33:54.198Z,100070.53
2024-01-01T16:36:21.365Z,100062.28
2024-01-01T16:38:48.476Z,100064.28
2024-01-01T16:41:15.478Z,100070.53
2024-01-01T16:43:42.513Z,100069.53
2024-01-01T16:46:12.224Z,100062.13
2024-01-01T16:48:39.410Z,100072.22
2024-01-01T16:51:06.582Z,100077.28
2024-01-01T16:53:34.195Z,100074.22
2024-01-01T16:56:01.402Z,100080.28
2024-01-01T16:58:28.451Z,100083.50
2024-01-01T17:00:55.534Z,100080.97
2024-01-01T17:03:25.176Z,100090.72
2024-01-01T17:05:52.376Z,100086.88
2024-01-01T17:08:19.453Z,100096.56
2024-01-01T17:10:46.583Z,100090.69
2024-01-01T17:13:13.622Z,100094.06
2024-01-01T17:15:40.578Z,100098.06
2024-01-01T17:18:07.690Z,100100.06
2024-01-01T17:20:37.411Z,100101.13
2024-01-01T17:23:05.936Z,100094.34
2024-01-01T17:25:33.401Z,100089.81
2024-01-01T17:28:00.454Z,100098.91
2024-01-01T17:30:27.522Z,100097.19
2024-01-01T17:32:54.770Z,100090.31
2024-01-01T17:35:22.006Z,100094.31
2024-01-01T17:37:51.708Z,100089.09
2024-01-01T17:40:18.723Z,100095.66
2024-01-01T17:42:45.664Z,100088.25
2024-01-01T17:45:12.761Z,100091.44
2024-01-01T17:47:39.814Z,100092.13
2024-01-01T17:50:07.510Z,100095.28
2024-01-01T17:52:34.532Z,100102.75
2024-01-01T17:55:04.857Z,100098.66
2024-01-01T17:57:31.900Z,100101.38
2024-01-01T17:59:58.931Z,100099.66
2024-01-01T18:02:26.027Z,100102.53
2024-01-01T18:04:53.200Z,100095.97
2024-01-01T18:07:20.292Z,100099.03
2024-01-01T18:09:47.316Z,100092.28
2024-01-01T18:12:16.932Z,100097.16
2024-01-01T18:14:44.034Z,100094.81
2024-01-01T18:17:11.109Z,100096.69
2024-01-01T18:19:38.275Z,100089.59
2024-01-01T18:22:05.659Z,100092.13
2024-01-01T18:24:32.754Z,100095.50
2024-01-01T18:26:59.809Z,100089.94
2024-01-01T18:29:29.521Z,100087.25
2024-01-01T18:31:56.878Z,100080.38
2024-01-01T18:34:24.929Z,100087.25
2024-01-01T18:36:52.100Z,100079.38
2024-01-01T18:39:19.270Z,100087.09
2024-01-01T18:41:46.388Z,100080.88
2024-01-01T18:44:13.467Z,100079.88
2024-01-01T18:46:43.300Z,100078.03
2024-01-01T18:49:10.728Z,100088.09
2024-01-01T18:51:38.065Z,100080.38
2024-01-01T18:54:05.209Z,100081.22
2024-01-01T18:56:32.347Z,100075.84
2024-01-01T18:58:59.441Z,100080.19
2024-01-01T19:01:26.442Z,100095.66
2024-01-01T19:04:01.373Z,100086.91
2024-01-01T19:06:33.108Z,100080.53
2024-01-01T19:09:00.216Z,100088.25
2024-01-01T19:11:27.421Z,100081.84
2024-01-01T19:13:54.494Z,100090.59
2024-01-01T19:16:21.630Z,100086.06
2024-01-01T19:18:48.958Z,100087.41
2024-01-01T19:21:18.859Z,100086.22
2024-01-01T19:23:45.910Z,100086.22
2024-01-01T19:26:12.989Z,100080.19
2024-01-01T19:28:40.093Z,100080.19
2024-01-01T19:31:07.210Z,100072.78
2024-01-01T19:33:34.308Z,100074.81
2024-01-01T19:36:01.458Z,100071.78
2024-01-01T19:38:31.073Z,100071.09
2024-01-01T19:40:58.117Z,100078.16
2024-01-01T19:43:25.198Z,100073.13
2024-01-01T19:45:52.234Z,100069.75
2024-01-01T19:48:19.303Z,100062.69
2024-01-01T19:50:46.306Z,100060.97
2024-01-01T19:53:23.962Z,100049.91
2024-01-01T19:55:56.752Z,100055.75
2024-01-01T19:58:23.719Z,100052.72
2024-01-01T20:00:50.767Z,100050.88
2024-01-01T20:03:17.994Z,100054.56
2024-01-01T20:05:45.042Z,100044.16
2024-01-01T20:08:12.171Z,100046.69
2024-01-01T20:10:39.265Z,100061.31
2024-01-01T20:13:09.054Z,100053.41
2024-01-01T20:15:37.634Z,100047.69
2024-01-01T20:18:05.642Z,100047.88
2024-01-01T20:20:32.845Z,100044.66
2024-01-01T20:23:00.093Z,100034.09
2024-01-01T20:25:27.105Z,100029.53
2024-01-01T20:27:54.125Z,100033.75
2024-01-01T20:30:24.069Z,100027.88
2024-01-01T20:32:51.313Z,100026.19
2024-01-01T20:35:18.495Z,100018.28
2024-01-01T20:37:45.548Z,100031.41
2024-01-01T20:40:13.762Z,100017.94
2024-01-01T20:42:40.818Z,100012.94
2024-01-01T20:45:08.364Z,100011.91
2024-01-01T20:47:38.089Z,99985.69
2024-01-01T20:50:06.003Z,99993.59
2024-01-01T20:52:37.032Z,99981.66
2024-01-01T20:55:09.961Z,99974.59
2024-01-01T20:57:36.956Z,99984.00
2024-01-01T21:00:05.725Z,99980.13
2024-01-01T21:02:32.959Z,99980.66
2024-01-01T21:05:02.738Z,99961.81
2024-01-01T21:07:30.956Z,99961.97
2024-01-01T21:09:59.168Z,99965.66
2024-01-01T21:12:26.256Z,99957.44
2024-01-01T21:14:53.345Z,99946.84
2024-01-01T21:17:20.365Z,99936.59
2024-01-01T21:19:47.442Z,99933.56
2024-01-01T21:22:17.048Z,99931.56
2024-01-01T21:24:44.081Z,99928.19
2024-01-01T21:27:11.239Z,99931.72
2024-01-01T21:29:40.214Z,99929.34
2024-01-01T21:32:07.394Z,99913.75
2024-01-01T21:34:34.458Z,99924.00
2024-01-01T21:37:01.722Z,99925.84
2024-01-01T21:39:31.401Z,99929.56
2024-01-01T21:41:58.572Z,99933.56
2024-01-01T21:44:25.662Z,99927.53
2024-01-01T21:46:52.721Z,99925.84
2024-01-01T21:49:19.833Z,99921.13
2024-01-01T21:51:47.188Z,99922.66
2024-01-01T21:54:14.554Z,99920.31
2024-01-01T21:56:44.261Z,99918.28
2024-01-01T21:59:11.304Z,99902.31
2024-01-01T22:01:38.365Z,99915.06
2024-01-01T22:04:05.637Z,99908.22
2024-01-01T22:06:32.714Z,99914.94
2024-01-01T22:08:59.687Z,99911.41
2024-01-01T22:11:26.733Z,99921.47
2024-01-01T22:13:56.353Z,99917.44
2024-01-01T22:16:23.439Z,99914.75
2024-01-01T22:18:50.521Z,99909.53
2024-01-01T22:21:18.054Z,99905.00
2024-01-01T22:23:45.195Z,99915.78
2024-01-01T22:26:12.738Z,99908.69
2024-01-01T22:28:39.909Z,99907.69
2024-01-01T22:31:09.496Z,99910.38
2024-01-01T22:33:36.923Z,99908.69
2024-01-01T22:36:05.271Z,99904.84
2024-01-01T22:38:32.440Z,99904.84
2024-01-01T22:40:59.556Z,99907.69
2024-01-01T22:43:26.605Z,99903.69
2024-01-01T22:45:53.682Z,99908.22
2024-01-01T22:48:23.409Z,99899.63
2024-01-01T22:50:50.440Z,99886.50
2024-01-01T22:53:17.508Z,99897.63
2024-01-01T22:55:44.561Z,99880.47
2024-01-01T22:58:11.589Z,99884.00
2024-01-01T23:00:38.695Z,99881.13
2024-01-01T23:03:06.067Z,99879.13
2024-01-01T23:05:35.926Z,99871.72
2024-01-01T23:08:03.176Z,99878.09
2024-01-01T23:10:30.480Z,99868.53
2024-01-01T23:12:57.856Z,99856.91
2024-01-01T23:15:24.925Z,99868.34
2024-01-01T23:17:52.131Z,99861.28
2024-01-01T23:20:19.894Z,99859.59
2024-01-01T23:22:49.581Z,99854.06
2024-01-01T23:25:16.746Z,99845.16
2024-01-01T23:27:43.785Z,99842.63
2024-01-01T23:30:11.206Z,99840.13
2024-01-01T23:32:38.514Z,99837.75
2024-01-01T23:35:05.866Z,99829.69
2024-01-01T23:37:33.119Z,99819.75
2024-01-01T23:40:02.695Z,99821.94
2024-01-01T23:42:29.728Z,99817.59
2024-01-01T23:44:56.784Z,99804.47
2024-01-01T23:47:23.857Z,99804.47
2024-01-01T23:49:51.024Z,99803.09
2024-01-01T23:52:18.040Z,99799.25
2024-01-01T23:54:45.015Z,99788.31
2024-01-01T23:57:14.671Z,99785.63
2024-01-01T23:59:41.668Z,99797.41
